This is the latest recevied weather packets stored in our database for station/object YO2MAS-13. If no packets are shown the sender has not sent any weather packets the latest 10 day(s).
| Time | Temp. | Humidity | Pressure | Rain* | Wind** | Luminosity | Snow |
|---|---|---|---|---|---|---|---|
| 1777832141 | 20.56° C | 41% | 1021.5 hPa | - | - | - | - |
| 1777831240 | 20.56° C | 41% | 1021.3 hPa | - | - | - | - |
| 1777830340 | 21.11° C | 39% | 1021.3 hPa | - | - | - | - |
| 1777829443 | 22.78° C | 36% | 1021.1 hPa | - | - | - | - |
| 1777828540 | 23.33° C | 36% | 1021.1 hPa | - | - | - | - |
| 1777827640 | 22.78° C | 35% | 1021.1 hPa | - | - | - | - |
| 1777826740 | 23.89° C | 35% | 1021 hPa | - | - | - | - |
| 1777825840 | 24.44° C | 32% | 1020.9 hPa | - | - | - | - |
| 1777824940 | 25° C | 32% | 1020.8 hPa | - | - | - | - |
| 1777824040 | 24.44° C | 32% | 1020.9 hPa | - | - | - | - |
| 1777823140 | 24.44° C | 32% | 1021 hPa | - | - | - | - |
| 1777822240 | 23.89° C | 32% | 1021.1 hPa | - | - | - | - |
| 1777821336 | 23.89° C | 32% | 1021.3 hPa | - | - | - | - |
| 1777820432 | 23.89° C | 32% | 1021.4 hPa | - | - | - | - |
| 1777819528 | 23.89° C | 32% | 1021.7 hPa | - | - | - | - |
| 1777818627 | 23.89° C | 32% | 1021.8 hPa | - | - | - | - |
| 1777817727 | 23.89° C | 33% | 1022 hPa | - | - | - | - |
| 1777816827 | 23.33° C | 34% | 1022.2 hPa | - | - | - | - |
| 1777815927 | 23.33° C | 34% | 1022.4 hPa | - | - | - | - |
| 1777815030 | 23.33° C | 33% | 1022.5 hPa | - | - | - | - |
| 1777814127 | 25° C | 31% | 1022.5 hPa | - | - | - | - |
| 1777813227 | 23.89° C | 32% | 1022.9 hPa | - | - | - | - |
| 1777812453 | 24.44° C | 33% | 1023 hPa | - | - | - | - |
| 1777812327 | 24.44° C | 33% | 1023 hPa | - | - | - | - |
| 1777811428 | 22.78° C | 34% | 1023.2 hPa | - | - | - | - |
* Rain since midnight (hover to see other rain measurements)
** Current wind speed in m/s (hover to see current wind gust speed)